sensor_id;sensor_type;location;lat;lon;timestamp;pressure;altitude;pressure_sealevel;temperature;humidity
31595;BME280;18200;48.726;8.892;2023-02-17T00:02:36;97591.22;;;20.49;30.60
31595;BME280;18200;48.726;8.892;2023-02-17T00:06:37;97592.59;;;20.05;30.95
31595;BME280;18200;48.726;8.892;2023-02-17T00:10:37;97606.56;;;20.18;30.75
31595;BME280;18200;48.726;8.892;2023-02-17T00:14:38;97601.81;;;20.36;30.53
31595;BME280;18200;48.726;8.892;2023-02-17T00:18:39;97600.44;;;19.96;30.46
31595;BME280;18200;48.726;8.892;2023-02-17T00:22:40;97594.72;;;19.17;33.06
31595;BME280;18200;48.726;8.892;2023-02-17T00:26:40;97594.38;;;19.40;32.15
31595;BME280;18200;48.726;8.892;2023-02-17T00:30:40;97585.00;;;19.30;32.76
31595;BME280;18200;48.726;8.892;2023-02-17T00:34:41;97586.91;;;19.61;32.38
31595;BME280;18200;48.726;8.892;2023-02-17T00:38:41;97578.38;;;19.24;32.43
31595;BME280;18200;48.726;8.892;2023-02-17T00:42:41;97579.56;;;19.41;32.49
31595;BME280;18200;48.726;8.892;2023-02-17T00:46:42;97583.09;;;19.16;32.66
31595;BME280;18200;48.726;8.892;2023-02-17T00:50:43;97587.75;;;18.95;33.93
31595;BME280;18200;48.726;8.892;2023-02-17T00:54:43;97581.84;;;19.63;31.98
31595;BME280;18200;48.726;8.892;2023-02-17T00:58:43;97585.41;;;19.39;32.72
31595;BME280;18200;48.726;8.892;2023-02-17T01:02:45;97582.28;;;19.02;32.99
31595;BME280;18200;48.726;8.892;2023-02-17T01:06:45;97583.47;;;19.08;32.81
31595;BME280;18200;48.726;8.892;2023-02-17T01:10:47;97582.25;;;19.58;32.31
31595;BME280;18200;48.726;8.892;2023-02-17T01:14:48;97581.50;;;19.44;32.34
31595;BME280;18200;48.726;8.892;2023-02-17T01:18:50;97564.28;;;19.71;31.86
31595;BME280;18200;48.726;8.892;2023-02-17T01:22:52;97569.03;;;19.28;32.61
31595;BME280;18200;48.726;8.892;2023-02-17T01:26:52;97563.59;;;19.43;32.41
31595;BME280;18200;48.726;8.892;2023-02-17T01:30:52;97561.94;;;19.77;32.17
31595;BME280;18200;48.726;8.892;2023-02-17T01:34:53;97560.13;;;19.35;32.82
31595;BME280;18200;48.726;8.892;2023-02-17T01:38:53;97551.06;;;19.59;32.19
31595;BME280;18200;48.726;8.892;2023-02-17T01:42:54;97552.59;;;19.74;32.22
31595;BME280;18200;48.726;8.892;2023-02-17T01:46:54;97550.16;;;19.97;31.51
31595;BME280;18200;48.726;8.892;2023-02-17T01:51:02;97536.13;;;19.99;31.83
31595;BME280;18200;48.726;8.892;2023-02-17T01:55:07;97533.88;;;19.76;32.19
31595;BME280;18200;48.726;8.892;2023-02-17T01:59:16;97537.31;;;19.94;31.88
31595;BME280;18200;48.726;8.892;2023-02-17T02:03:18;97535.41;;;19.84;31.98
31595;BME280;18200;48.726;8.892;2023-02-17T02:07:25;97535.88;;;20.48;31.34
31595;BME280;18200;48.726;8.892;2023-02-17T02:11:27;97531.97;;;20.46;30.76
31595;BME280;18200;48.726;8.892;2023-02-17T02:15:34;97530.31;;;20.59;30.82
31595;BME280;18200;48.726;8.892;2023-02-17T02:32:28;97518.47;;;19.17;32.47
31595;BME280;18200;48.726;8.892;2023-02-17T02:36:43;97514.47;;;19.67;32.38
31595;BME280;18200;48.726;8.892;2023-02-17T02:40:51;97518.91;;;18.63;34.15
31595;BME280;18200;48.726;8.892;2023-02-17T02:44:53;97518.47;;;19.17;32.89
31595;BME280;18200;48.726;8.892;2023-02-17T02:48:54;97516.56;;;18.79;34.05
31595;BME280;18200;48.726;8.892;2023-02-17T02:53:26;97520.06;;;18.69;34.26
31595;BME280;18200;48.726;8.892;2023-02-17T02:57:46;97510.72;;;19.01;33.27
31595;BME280;18200;48.726;8.892;2023-02-17T03:06:16;97492.06;;;18.79;33.60
31595;BME280;18200;48.726;8.892;2023-02-17T03:10:19;97493.59;;;18.27;34.75
31595;BME280;18200;48.726;8.892;2023-02-17T03:14:21;97474.88;;;19.24;33.31
31595;BME280;18200;48.726;8.892;2023-02-17T03:18:22;97477.88;;;17.57;36.07
31595;BME280;18200;48.726;8.892;2023-02-17T03:22:25;97476.47;;;18.19;34.95
31595;BME280;18200;48.726;8.892;2023-02-17T03:26:27;97482.69;;;18.06;35.40
31595;BME280;18200;48.726;8.892;2023-02-17T03:30:28;97486.63;;;18.43;34.75
31595;BME280;18200;48.726;8.892;2023-02-17T03:34:28;97487.38;;;18.97;33.75
31595;BME280;18200;48.726;8.892;2023-02-17T03:38:30;97480.41;;;18.46;34.86
31595;BME280;18200;48.726;8.892;2023-02-17T03:42:30;97486.59;;;18.96;33.67
31595;BME280;18200;48.726;8.892;2023-02-17T03:46:31;97483.78;;;19.39;33.54
31595;BME280;18200;48.726;8.892;2023-02-17T03:50:31;97479.38;;;19.73;32.72
31595;BME280;18200;48.726;8.892;2023-02-17T03:54:32;97485.00;;;19.20;32.98
31595;BME280;18200;48.726;8.892;2023-02-17T03:58:32;97486.53;;;19.35;33.66
31595;BME280;18200;48.726;8.892;2023-02-17T04:02:33;97486.25;;;18.91;34.32
31595;BME280;18200;48.726;8.892;2023-02-17T04:06:34;97487.22;;;19.60;34.21
31595;BME280;18200;48.726;8.892;2023-02-17T04:10:34;97496.63;;;20.76;31.53
31595;BME280;18200;48.726;8.892;2023-02-17T04:14:34;97494.13;;;20.92;32.35
31595;BME280;18200;48.726;8.892;2023-02-17T04:18:36;97505.00;;;21.03;32.21
31595;BME280;18200;48.726;8.892;2023-02-17T04:22:36;97505.56;;;21.24;31.83
31595;BME280;18200;48.726;8.892;2023-02-17T04:26:37;97510.50;;;21.36;31.15
31595;BME280;18200;48.726;8.892;2023-02-17T04:30:38;97498.31;;;20.59;32.72
31595;BME280;18200;48.726;8.892;2023-02-17T04:34:38;97498.59;;;21.53;30.88
31595;BME280;18200;48.726;8.892;2023-02-17T04:38:39;97483.19;;;21.67;30.87
31595;BME280;18200;48.726;8.892;2023-02-17T04:42:39;97487.94;;;20.88;32.46
31595;BME280;18200;48.726;8.892;2023-02-17T04:46:39;97475.00;;;21.67;31.26
31595;BME280;18200;48.726;8.892;2023-02-17T04:50:40;97472.88;;;21.14;32.80
31595;BME280;18200;48.726;8.892;2023-02-17T04:54:40;97477.94;;;21.15;32.48
31595;BME280;18200;48.726;8.892;2023-02-17T04:58:40;97466.56;;;21.54;31.49
31595;BME280;18200;48.726;8.892;2023-02-17T05:02:41;97470.44;;;21.23;32.55
31595;BME280;18200;48.726;8.892;2023-02-17T05:06:41;97468.66;;;21.02;32.95
31595;BME280;18200;48.726;8.892;2023-02-17T05:10:42;97465.00;;;21.19;33.31
31595;BME280;18200;48.726;8.892;2023-02-17T05:14:42;97469.63;;;21.26;33.22
31595;BME280;18200;48.726;8.892;2023-02-17T05:18:42;97471.72;;;21.11;33.56
31595;BME280;18200;48.726;8.892;2023-02-17T05:22:43;97472.31;;;20.88;34.31
31595;BME280;18200;48.726;8.892;2023-02-17T05:26:43;97474.97;;;21.36;33.00
31595;BME280;18200;48.726;8.892;2023-02-17T05:30:43;97464.97;;;20.38;35.07
31595;BME280;18200;48.726;8.892;2023-02-17T05:34:44;97466.44;;;21.95;32.40
31595;BME280;18200;48.726;8.892;2023-02-17T05:38:44;97470.97;;;21.44;33.14
31595;BME280;18200;48.726;8.892;2023-02-17T05:42:48;97487.78;;;21.02;34.41
31595;BME280;18200;48.726;8.892;2023-02-17T05:46:48;97469.41;;;21.43;33.89
31595;BME280;18200;48.726;8.892;2023-02-17T05:50:48;97492.25;;;21.26;35.06
31595;BME280;18200;48.726;8.892;2023-02-17T05:54:49;97491.59;;;21.15;35.06
31595;BME280;18200;48.726;8.892;2023-02-17T05:58:49;97494.53;;;21.99;32.88
31595;BME280;18200;48.726;8.892;2023-02-17T06:02:49;97502.41;;;21.26;34.88
31595;BME280;18200;48.726;8.892;2023-02-17T06:06:50;97507.75;;;20.55;36.47
31595;BME280;18200;48.726;8.892;2023-02-17T06:10:52;97515.59;;;21.34;34.61
31595;BME280;18200;48.726;8.892;2023-02-17T06:14:53;97508.00;;;21.52;34.71
31595;BME280;18200;48.726;8.892;2023-02-17T06:18:53;97511.53;;;21.49;34.29
31595;BME280;18200;48.726;8.892;2023-02-17T06:22:53;97510.88;;;21.72;34.72
31595;BME280;18200;48.726;8.892;2023-02-17T06:26:54;97516.13;;;22.20;33.55
31595;BME280;18200;48.726;8.892;2023-02-17T06:30:54;97531.50;;;21.80;34.11
31595;BME280;18200;48.726;8.892;2023-02-17T06:34:54;97518.88;;;21.90;33.95
31595;BME280;18200;48.726;8.892;2023-02-17T06:38:55;97529.31;;;21.64;34.22
31595;BME280;18200;48.726;8.892;2023-02-17T06:42:55;97524.75;;;21.17;35.42
31595;BME280;18200;48.726;8.892;2023-02-17T06:46:55;97519.44;;;20.52;36.31
31595;BME280;18200;48.726;8.892;2023-02-17T06:50:56;97512.78;;;21.01;35.38
31595;BME280;18200;48.726;8.892;2023-02-17T06:54:56;97518.69;;;21.36;35.14
31595;BME280;18200;48.726;8.892;2023-02-17T06:58:57;97532.88;;;21.24;35.84
31595;BME280;18200;48.726;8.892;2023-02-17T07:02:57;97522.69;;;21.96;34.12
31595;BME280;18200;48.726;8.892;2023-02-17T07:06:57;97539.34;;;21.75;34.32
31595;BME280;18200;48.726;8.892;2023-02-17T07:10:58;97548.75;;;21.74;35.21
31595;BME280;18200;48.726;8.892;2023-02-17T07:14:58;97547.34;;;20.77;35.82
31595;BME280;18200;48.726;8.892;2023-02-17T07:18:58;97550.06;;;21.96;34.67
31595;BME280;18200;48.726;8.892;2023-02-17T07:22:59;97558.97;;;21.70;35.13
31595;BME280;18200;48.726;8.892;2023-02-17T07:27:00;97568.84;;;22.24;33.95
31595;BME280;18200;48.726;8.892;2023-02-17T07:31:05;97567.91;;;22.07;34.22
31595;BME280;18200;48.726;8.892;2023-02-17T07:35:06;97561.56;;;22.14;34.27
31595;BME280;18200;48.726;8.892;2023-02-17T07:39:06;97562.66;;;21.90;34.58
31595;BME280;18200;48.726;8.892;2023-02-17T07:43:06;97560.19;;;22.59;33.47
31595;BME280;18200;48.726;8.892;2023-02-17T07:47:07;97557.06;;;22.57;33.82
31595;BME280;18200;48.726;8.892;2023-02-17T07:51:10;97569.34;;;22.19;34.55
31595;BME280;18200;48.726;8.892;2023-02-17T07:55:10;97570.91;;;21.86;35.78
31595;BME280;18200;48.726;8.892;2023-02-17T07:59:11;97578.34;;;22.46;34.62
31595;BME280;18200;48.726;8.892;2023-02-17T08:03:11;97577.44;;;21.96;35.83
31595;BME280;18200;48.726;8.892;2023-02-17T08:07:12;97581.81;;;22.20;34.96
31595;BME280;18200;48.726;8.892;2023-02-17T08:11:15;97585.78;;;21.82;35.86
31595;BME280;18200;48.726;8.892;2023-02-17T08:15:34;97584.09;;;21.95;36.07
31595;BME280;18200;48.726;8.892;2023-02-17T08:19:35;97596.78;;;21.75;36.28
31595;BME280;18200;48.726;8.892;2023-02-17T08:23:35;97584.63;;;22.43;35.91
31595;BME280;18200;48.726;8.892;2023-02-17T08:27:35;97593.16;;;21.88;36.70
31595;BME280;18200;48.726;8.892;2023-02-17T08:31:36;97585.28;;;22.24;35.95
31595;BME280;18200;48.726;8.892;2023-02-17T08:35:37;97583.09;;;22.42;36.07
31595;BME280;18200;48.726;8.892;2023-02-17T08:39:37;97587.03;;;22.94;34.95
31595;BME280;18200;48.726;8.892;2023-02-17T08:43:38;97585.19;;;22.61;35.82
31595;BME280;18200;48.726;8.892;2023-02-17T08:47:38;97587.94;;;22.31;36.44
31595;BME280;18200;48.726;8.892;2023-02-17T08:51:39;97591.41;;;22.65;36.20
31595;BME280;18200;48.726;8.892;2023-02-17T08:55:39;97584.91;;;22.22;36.10
31595;BME280;18200;48.726;8.892;2023-02-17T08:59:40;97597.84;;;21.91;37.44
31595;BME280;18200;48.726;8.892;2023-02-17T09:03:40;97581.75;;;22.54;36.40
31595;BME280;18200;48.726;8.892;2023-02-17T09:07:41;97585.00;;;22.45;36.39
31595;BME280;18200;48.726;8.892;2023-02-17T09:11:42;97579.78;;;22.54;36.49
31595;BME280;18200;48.726;8.892;2023-02-17T09:15:42;97573.84;;;22.86;35.92
31595;BME280;18200;48.726;8.892;2023-02-17T09:19:42;97578.34;;;22.46;36.41
31595;BME280;18200;48.726;8.892;2023-02-17T09:23:43;97583.28;;;22.28;36.99
31595;BME280;18200;48.726;8.892;2023-02-17T09:27:43;97572.41;;;22.78;35.79
31595;BME280;18200;48.726;8.892;2023-02-17T09:31:44;97582.09;;;22.59;36.96
31595;BME280;18200;48.726;8.892;2023-02-17T09:35:45;97570.13;;;22.73;36.34
31595;BME280;18200;48.726;8.892;2023-02-17T09:39:47;97564.19;;;23.01;35.74
31595;BME280;18200;48.726;8.892;2023-02-17T09:43:51;97569.59;;;23.28;35.27
31595;BME280;18200;48.726;8.892;2023-02-17T09:47:54;97571.75;;;23.63;35.47
31595;BME280;18200;48.726;8.892;2023-02-17T09:56:02;97569.16;;;23.95;35.16
31595;BME280;18200;48.726;8.892;2023-02-17T10:00:12;97571.38;;;24.55;33.80
31595;BME280;18200;48.726;8.892;2023-02-17T10:04:29;97582.84;;;23.56;35.71
31595;BME280;18200;48.726;8.892;2023-02-17T10:08:41;97581.88;;;24.44;33.63
31595;BME280;18200;48.726;8.892;2023-02-17T10:12:52;97591.53;;;24.13;34.87
31595;BME280;18200;48.726;8.892;2023-02-17T10:17:04;97605.09;;;24.59;33.21
31595;BME280;18200;48.726;8.892;2023-02-17T10:21:10;97609.16;;;24.16;34.03
31595;BME280;18200;48.726;8.892;2023-02-17T10:25:19;97607.16;;;24.72;33.32
31595;BME280;18200;48.726;8.892;2023-02-17T10:29:40;97615.69;;;23.82;35.06
31595;BME280;18200;48.726;8.892;2023-02-17T10:38:05;97596.75;;;24.27;34.23
31595;BME280;18200;48.726;8.892;2023-02-17T10:42:25;97592.09;;;24.05;35.44
31595;BME280;18200;48.726;8.892;2023-02-17T10:46:28;97595.34;;;22.87;38.05
31595;BME280;18200;48.726;8.892;2023-02-17T10:50:30;97584.41;;;23.10;37.78
31595;BME280;18200;48.726;8.892;2023-02-17T10:54:41;97596.22;;;23.07;37.91
31595;BME280;18200;48.726;8.892;2023-02-17T10:58:58;97595.84;;;25.18;33.89
31595;BME280;18200;48.726;8.892;2023-02-17T11:03:00;97589.66;;;24.82;34.72
31595;BME280;18200;48.726;8.892;2023-02-17T11:07:02;97590.66;;;23.77;36.64
31595;BME280;18200;48.726;8.892;2023-02-17T11:11:16;97582.91;;;23.52;37.32
31595;BME280;18200;48.726;8.892;2023-02-17T11:15:25;97568.84;;;25.45;33.90
31595;BME280;18200;48.726;8.892;2023-02-17T11:19:34;97571.75;;;23.63;36.68
31595;BME280;18200;48.726;8.892;2023-02-17T11:23:35;97559.44;;;24.98;34.14
31595;BME280;18200;48.726;8.892;2023-02-17T11:27:53;97562.47;;;23.57;37.30
31595;BME280;18200;48.726;8.892;2023-02-17T11:31:59;97555.44;;;23.95;36.29
31595;BME280;18200;48.726;8.892;2023-02-17T11:36:01;97562.25;;;22.78;38.73
31595;BME280;18200;48.726;8.892;2023-02-17T11:40:21;97551.53;;;24.32;36.43
31595;BME280;18200;48.726;8.892;2023-02-17T11:44:26;97552.34;;;24.64;35.33
31595;BME280;18200;48.726;8.892;2023-02-17T11:57:36;97553.47;;;23.76;35.89
31595;BME280;18200;48.726;8.892;2023-02-17T12:06:00;97568.75;;;22.61;38.93
31595;BME280;18200;48.726;8.892;2023-02-17T12:10:15;97560.22;;;23.05;38.48
31595;BME280;18200;48.726;8.892;2023-02-17T12:19:09;97553.19;;;22.55;39.41
31595;BME280;18200;48.726;8.892;2023-02-17T12:23:27;97567.59;;;22.02;40.95
31595;BME280;18200;48.726;8.892;2023-02-17T12:31:52;97551.88;;;23.36;38.37
31595;BME280;18200;48.726;8.892;2023-02-17T12:36:00;97542.47;;;24.15;36.94
31595;BME280;18200;48.726;8.892;2023-02-17T12:40:05;97551.47;;;22.64;39.52
31595;BME280;18200;48.726;8.892;2023-02-17T12:44:21;97547.44;;;22.72;39.42
31595;BME280;18200;48.726;8.892;2023-02-17T12:52:37;97544.94;;;23.28;37.53
31595;BME280;18200;48.726;8.892;2023-02-17T13:01:04;97543.66;;;23.75;37.81
31595;BME280;18200;48.726;8.892;2023-02-17T13:05:22;97538.69;;;24.09;37.00
31595;BME280;18200;48.726;8.892;2023-02-17T13:09:29;97549.94;;;23.95;37.00
31595;BME280;18200;48.726;8.892;2023-02-17T13:13:33;97545.59;;;24.33;36.85
31595;BME280;18200;48.726;8.892;2023-02-17T13:17:38;97565.03;;;22.45;39.46
31595;BME280;18200;48.726;8.892;2023-02-17T13:21:51;97551.88;;;23.36;38.07
31595;BME280;18200;48.726;8.892;2023-02-17T13:34:37;97536.75;;;24.26;37.03
31595;BME280;18200;48.726;8.892;2023-02-17T13:38:37;97537.75;;;23.37;39.04
31595;BME280;18200;48.726;8.892;2023-02-17T13:42:40;97544.25;;;24.41;37.04
31595;BME280;18200;48.726;8.892;2023-02-17T13:46:42;97536.25;;;22.86;40.30
31595;BME280;18200;48.726;8.892;2023-02-17T13:50:48;97531.00;;;24.20;37.44
31595;BME280;18200;48.726;8.892;2023-02-17T13:55:00;97527.28;;;23.91;38.19
31595;BME280;18200;48.726;8.892;2023-02-17T13:59:24;97526.00;;;24.83;36.57
31595;BME280;18200;48.726;8.892;2023-02-17T14:03:32;97517.06;;;25.40;35.77
31595;BME280;18200;48.726;8.892;2023-02-17T14:07:35;97525.16;;;25.47;34.22
31595;BME280;18200;48.726;8.892;2023-02-17T14:11:37;97526.94;;;25.09;35.19
31595;BME280;18200;48.726;8.892;2023-02-17T14:15:48;97513.34;;;25.18;34.74
31595;BME280;18200;48.726;8.892;2023-02-17T14:19:49;97515.25;;;26.45;33.33
31595;BME280;18200;48.726;8.892;2023-02-17T14:23:53;97527.16;;;25.88;33.53
31595;BME280;18200;48.726;8.892;2023-02-17T14:27:54;97532.78;;;24.95;35.54
31595;BME280;18200;48.726;8.892;2023-02-17T14:31:55;97526.75;;;25.16;35.29
31595;BME280;18200;48.726;8.892;2023-02-17T14:35:58;97531.53;;;25.85;34.15
31595;BME280;18200;48.726;8.892;2023-02-17T14:39:59;97540.88;;;25.75;34.00
31595;BME280;18200;48.726;8.892;2023-02-17T14:44:00;97530.56;;;24.90;35.36
31595;BME280;18200;48.726;8.892;2023-02-17T14:48:00;97538.38;;;25.81;34.53
31595;BME280;18200;48.726;8.892;2023-02-17T14:52:15;97516.81;;;24.90;34.83
31595;BME280;18200;48.726;8.892;2023-02-17T14:56:24;97537.19;;;25.94;33.98
31595;BME280;18200;48.726;8.892;2023-02-17T15:00:25;97524.59;;;26.35;33.92
31595;BME280;18200;48.726;8.892;2023-02-17T15:04:25;97546.44;;;25.14;34.77
31595;BME280;18200;48.726;8.892;2023-02-17T15:08:33;97525.25;;;26.13;33.46
31595;BME280;18200;48.726;8.892;2023-02-17T15:12:33;97533.38;;;25.63;34.04
31595;BME280;18200;48.726;8.892;2023-02-17T15:16:34;97523.59;;;25.01;35.42
31595;BME280;18200;48.726;8.892;2023-02-17T15:20:35;97525.53;;;24.68;35.59
31595;BME280;18200;48.726;8.892;2023-02-17T15:24:35;97515.06;;;24.47;36.19
31595;BME280;18200;48.726;8.892;2023-02-17T15:28:36;97516.66;;;24.81;35.14
31595;BME280;18200;48.726;8.892;2023-02-17T15:32:36;97509.69;;;23.69;37.57
31595;BME280;18200;48.726;8.892;2023-02-17T15:36:37;97505.50;;;24.00;37.33
31595;BME280;18200;48.726;8.892;2023-02-17T15:40:38;97488.69;;;23.98;36.91
31595;BME280;18200;48.726;8.892;2023-02-17T15:44:43;97503.09;;;23.04;38.09
31595;BME280;18200;48.726;8.892;2023-02-17T15:48:46;97513.13;;;24.12;36.83
31595;BME280;18200;48.726;8.892;2023-02-17T15:52:51;97518.28;;;23.71;37.55
31595;BME280;18200;48.726;8.892;2023-02-17T15:56:51;97507.41;;;23.25;38.49
31595;BME280;18200;48.726;8.892;2023-02-17T16:00:54;97508.22;;;23.02;38.97
31595;BME280;18200;48.726;8.892;2023-02-17T16:04:58;97506.94;;;23.49;37.35
31595;BME280;18200;48.726;8.892;2023-02-17T16:08:58;97507.28;;;23.32;38.39
31595;BME280;18200;48.726;8.892;2023-02-17T16:12:59;97506.31;;;23.42;38.15
31595;BME280;18200;48.726;8.892;2023-02-17T16:17:11;97509.19;;;23.11;38.55
31595;BME280;18200;48.726;8.892;2023-02-17T16:21:12;97491.25;;;23.50;37.41
31595;BME280;18200;48.726;8.892;2023-02-17T16:25:14;97491.69;;;23.68;37.29
31595;BME280;18200;48.726;8.892;2023-02-17T16:29:19;97497.75;;;23.40;38.07
31595;BME280;18200;48.726;8.892;2023-02-17T16:33:20;97489.19;;;22.91;38.97
31595;BME280;18200;48.726;8.892;2023-02-17T16:37:21;97499.56;;;23.03;38.93
31595;BME280;18200;48.726;8.892;2023-02-17T16:41:21;97491.84;;;23.18;38.58
31595;BME280;18200;48.726;8.892;2023-02-17T16:45:24;97518.97;;;23.75;37.56
31595;BME280;18200;48.726;8.892;2023-02-17T16:49:29;97527.91;;;23.17;38.76
31595;BME280;18200;48.726;8.892;2023-02-17T16:53:34;97536.63;;;23.54;37.65
31595;BME280;18200;48.726;8.892;2023-02-17T16:57:35;97527.50;;;23.80;36.98
31595;BME280;18200;48.726;8.892;2023-02-17T17:01:35;97540.44;;;24.00;37.00
31595;BME280;18200;48.726;8.892;2023-02-17T17:05:36;97540.94;;;24.14;36.56
31595;BME280;18200;48.726;8.892;2023-02-17T17:09:36;97543.59;;;23.59;37.76
31595;BME280;18200;48.726;8.892;2023-02-17T17:13:37;97541.13;;;23.64;37.78
31595;BME280;18200;48.726;8.892;2023-02-17T17:17:41;97547.69;;;23.90;37.16
31595;BME280;18200;48.726;8.892;2023-02-17T17:21:42;97554.16;;;23.80;37.53
31595;BME280;18200;48.726;8.892;2023-02-17T17:25:44;97549.81;;;24.02;36.96
31595;BME280;18200;48.726;8.892;2023-02-17T17:29:45;97554.66;;;24.14;36.75
31595;BME280;18200;48.726;8.892;2023-02-17T17:33:47;97565.94;;;24.72;35.83
31595;BME280;18200;48.726;8.892;2023-02-17T17:37:48;97561.38;;;24.65;35.54
31595;BME280;18200;48.726;8.892;2023-02-17T17:41:49;97555.63;;;24.59;36.05
31595;BME280;18200;48.726;8.892;2023-02-17T17:45:50;97553.94;;;24.30;36.53
31595;BME280;18200;48.726;8.892;2023-02-17T17:49:51;97545.72;;;24.10;37.17
31595;BME280;18200;48.726;8.892;2023-02-17T17:53:52;97549.41;;;24.00;37.45
31595;BME280;18200;48.726;8.892;2023-02-17T17:57:52;97556.63;;;24.14;36.98
31595;BME280;18200;48.726;8.892;2023-02-17T18:01:52;97568.47;;;24.46;36.47
31595;BME280;18200;48.726;8.892;2023-02-17T18:05:53;97577.53;;;23.88;37.75
31595;BME280;18200;48.726;8.892;2023-02-17T18:09:53;97567.81;;;24.75;36.18
31595;BME280;18200;48.726;8.892;2023-02-17T18:13:57;97577.81;;;24.85;35.93
31595;BME280;18200;48.726;8.892;2023-02-17T18:17:58;97582.91;;;24.66;36.24
31595;BME280;18200;48.726;8.892;2023-02-17T18:21:59;97588.47;;;24.83;36.53
31595;BME280;18200;48.726;8.892;2023-02-17T18:25:59;97600.13;;;25.35;35.09
31595;BME280;18200;48.726;8.892;2023-02-17T18:29:59;97604.75;;;23.79;38.93
31595;BME280;18200;48.726;8.892;2023-02-17T18:34:00;97593.84;;;24.34;37.92
31595;BME280;18200;48.726;8.892;2023-02-17T18:38:01;97606.50;;;24.84;36.73
31595;BME280;18200;48.726;8.892;2023-02-17T18:42:02;97617.41;;;25.35;35.98
31595;BME280;18200;48.726;8.892;2023-02-17T18:46:03;97621.31;;;23.95;38.89
31595;BME280;18200;48.726;8.892;2023-02-17T18:50:06;97626.09;;;23.91;38.97
31595;BME280;18200;48.726;8.892;2023-02-17T18:54:07;97632.88;;;24.81;36.73
31595;BME280;18200;48.726;8.892;2023-02-17T18:58:10;97637.19;;;24.62;37.04
31595;BME280;18200;48.726;8.892;2023-02-17T19:02:10;97645.53;;;25.11;36.13
31595;BME280;18200;48.726;8.892;2023-02-17T19:06:12;97645.34;;;25.18;36.75
31595;BME280;18200;48.726;8.892;2023-02-17T19:10:15;97653.59;;;25.66;35.51
31595;BME280;18200;48.726;8.892;2023-02-17T19:14:15;97653.47;;;25.57;35.75
31595;BME280;18200;48.726;8.892;2023-02-17T19:18:15;97670.41;;;24.88;37.25
31595;BME280;18200;48.726;8.892;2023-02-17T19:22:16;97674.59;;;25.60;35.75
31595;BME280;18200;48.726;8.892;2023-02-17T19:26:18;97670.63;;;25.29;36.28
31595;BME280;18200;48.726;8.892;2023-02-17T19:30:18;97672.16;;;23.10;40.85
31595;BME280;18200;48.726;8.892;2023-02-17T19:34:19;97675.03;;;22.73;42.07
31595;BME280;18200;48.726;8.892;2023-02-17T19:38:19;97679.75;;;22.39;42.49
31595;BME280;18200;48.726;8.892;2023-02-17T19:42:19;97674.78;;;22.91;41.15
31595;BME280;18200;48.726;8.892;2023-02-17T19:46:20;97691.56;;;22.66;41.75
31595;BME280;18200;48.726;8.892;2023-02-17T19:50:23;97696.59;;;23.25;40.89
31595;BME280;18200;48.726;8.892;2023-02-17T19:54:23;97700.81;;;23.06;41.49
31595;BME280;18200;48.726;8.892;2023-02-17T19:58:24;97712.44;;;21.79;44.17
31595;BME280;18200;48.726;8.892;2023-02-17T20:02:24;97740.75;;;21.00;45.13
31595;BME280;18200;48.726;8.892;2023-02-17T20:06:27;97724.75;;;21.53;43.91
31595;BME280;18200;48.726;8.892;2023-02-17T20:10:28;97734.75;;;21.74;43.83
31595;BME280;18200;48.726;8.892;2023-02-17T20:14:29;97724.53;;;21.85;43.91
31595;BME280;18200;48.726;8.892;2023-02-17T20:18:29;97739.06;;;22.19;42.96
31595;BME280;18200;48.726;8.892;2023-02-17T20:22:29;97737.97;;;22.43;41.72
31595;BME280;18200;48.726;8.892;2023-02-17T20:26:32;97726.56;;;21.74;42.70
31595;BME280;18200;48.726;8.892;2023-02-17T20:30:33;97738.75;;;21.66;42.64
31595;BME280;18200;48.726;8.892;2023-02-17T20:34:35;97728.13;;;23.40;39.18
31595;BME280;18200;48.726;8.892;2023-02-17T20:38:40;97709.78;;;23.06;39.57
31595;BME280;18200;48.726;8.892;2023-02-17T20:42:40;97728.13;;;21.23;43.37
31595;BME280;18200;48.726;8.892;2023-02-17T20:46:41;97725.81;;;22.14;41.65
31595;BME280;18200;48.726;8.892;2023-02-17T20:50:42;97719.28;;;22.98;39.29
31595;BME280;18200;48.726;8.892;2023-02-17T20:54:43;97716.88;;;23.31;38.59
31595;BME280;18200;48.726;8.892;2023-02-17T20:58:44;97733.84;;;22.65;39.34
31595;BME280;18200;48.726;8.892;2023-02-17T21:02:45;97728.44;;;24.15;36.40
31595;BME280;18200;48.726;8.892;2023-02-17T21:06:45;97740.19;;;24.15;36.30
31595;BME280;18200;48.726;8.892;2023-02-17T21:10:46;97739.63;;;22.37;39.24
31595;BME280;18200;48.726;8.892;2023-02-17T21:14:46;97739.19;;;22.76;38.86
31595;BME280;18200;48.726;8.892;2023-02-17T21:18:47;97746.34;;;22.66;39.24
31595;BME280;18200;48.726;8.892;2023-02-17T21:22:48;97753.63;;;21.57;40.37
31595;BME280;18200;48.726;8.892;2023-02-17T21:26:49;97743.19;;;21.97;41.08
31595;BME280;18200;48.726;8.892;2023-02-17T21:30:49;97741.97;;;21.53;41.83
31595;BME280;18200;48.726;8.892;2023-02-17T21:34:50;97720.97;;;21.88;40.63
31595;BME280;18200;48.726;8.892;2023-02-17T21:38:50;97708.97;;;23.09;37.38
31595;BME280;18200;48.726;8.892;2023-02-17T21:42:50;97721.81;;;21.85;38.73
31595;BME280;18200;48.726;8.892;2023-02-17T21:47:09;97705.50;;;23.05;37.63
31595;BME280;18200;48.726;8.892;2023-02-17T21:51:11;97715.47;;;22.62;37.17
31595;BME280;18200;48.726;8.892;2023-02-17T21:55:11;97700.53;;;23.73;35.65
31595;BME280;18200;48.726;8.892;2023-02-17T21:59:12;97707.38;;;22.18;38.33
31595;BME280;18200;48.726;8.892;2023-02-17T22:03:12;97697.09;;;22.89;37.29
31595;BME280;18200;48.726;8.892;2023-02-17T22:07:13;97691.75;;;24.44;34.71
31595;BME280;18200;48.726;8.892;2023-02-17T22:11:19;97686.53;;;24.30;34.97
31595;BME280;18200;48.726;8.892;2023-02-17T22:15:20;97698.06;;;23.79;35.70
31595;BME280;18200;48.726;8.892;2023-02-17T22:19:22;97694.66;;;24.77;33.78
31595;BME280;18200;48.726;8.892;2023-02-17T22:23:23;97708.91;;;24.88;33.97
31595;BME280;18200;48.726;8.892;2023-02-17T22:27:23;97712.69;;;22.32;37.76
31595;BME280;18200;48.726;8.892;2023-02-17T22:31:27;97701.81;;;24.31;34.52